Hovedside
METAR-TAF:

METAR-TAF

Lufthavner :

Jönköping, Sverige

Jönköping lufthavn

breddegrad: 57-46N, lengdegrad: 014-05E, høyde over havet: 226 m

Gjeldene værobservasjon

Denne rapporten ble laget for 16 minutter siden, klokken 04:20 UTC
Vind 16 kt fra Sørvest
Temperatur 1°C
Luftfuktighet 75%
Trykk 992 hPa
Sikt 10 km eller mer
Få skyer i en høyde av 3600 ft

METAR: ESGJ 250420Z 22016KT 9999 FEW036 01/M03 Q0992

Tid: 06:36 (04:36 UTC)

Varsel

Denne rapporten ble laget for 48 minutter siden, klokken 03:48 UTC
Varsel gyldig fra 25. klokken 04 UTC til 25. klokken 12 UTC
Vind 12 kt fra Sørvest
Sikt 10 km eller mer
Brutte skyer i en høyde av 3500 ft
Sannsynlighet 40%
fra 25. klokken 06 UTC til 25. klokken 12 UTC
Sikt: 4000 m
Brutte skyer i en høyde av 800 ft
lett regn, snø

TAF: ESGJ 250348Z 2504/2512 22012KT 9999 BKN035 PROB40 2506/2512 4000 -RASN BKN008

Værobservasjoner og værvarsel for over 4000 flyplasser (METAR- og TAF-rapporter).

Tilgjengelige stasjoner er representert av de røde og gule prikkene på kartet.

Hold musepekeren over prikken for å se navnet på stasjonen.

Klikk så for å se værobservasjoner og -varsler.

For å forandre kartet kan du klikke på den grønne knappen med svart kryss for å zoome inn, på den grønne knappen med strek for å zoome ut, eller på de grønne pilene for å se tilstøtende kart.


METAR-TAF: